Veni Vi — LD9966 — position and weather

sailwx.info

Track history (hours):
 
Tides and Currents Weather Stations Pressure Air Temp Water Temp Dewpoint Dewpoint Depression Visibility Wind Speed Wind Dir Waves Ship Positions

Veni Vi

Last reported at 2017-Jun-25 16:00 UTC. Time now 2017-Jun-25 17:27 UTC.
Position N 60°16' E 005°15'.

Length 13 m.

Type: Sailing vessel. MMSI: 257827490.

Date/timePositionNaut miles runAvg speedWind from/ knotsBaromVisibWave heightAir tempDewpointWater temp
2017-Jun-25 16:00N 60°16' E 005°15'  
2017-Jun-22 20:56N 60°16' E 005°15'0 0.0
2017-Jun-21 22:15N 60°16' E 005°15'0 0.0
2017-Jun-21 22:00N 60°16' E 005°15'0 0.0
2017-Jun-21 21:30N 60°16' E 005°15'0 0.0
2017-Jun-19 20:53N 60°16' E 005°15'0 0.0
2017-Jun-19 20:29N 60°16' E 005°15'0 0.6
2017-Jun-19 20:00N 60°16' E 005°15'2 4.4
2017-Jun-19 19:30N 60°18' E 005°12'2 3.2
2017-Jun-19 19:00N 60°16' E 005°12'  
2017-Jun-16 20:06N 60°16' E 005°15'0 0.0
2017-Jun-16 20:00N 60°16' E 005°15'0 0.0
2017-Jun-16 19:30N 60°16' E 005°15'0 0.5
2017-Jun-16 19:00N 60°16' E 005°15'2 3.2
2017-Jun-16 18:29N 60°17' E 005°12'2 3.5
2017-Jun-16 18:00N 60°18' E 005°12'2 3.7
2017-Jun-16 17:29N 60°20' E 005°11'3 5.1
2017-Jun-16 17:00N 60°23' E 005°10'3 6.9
2017-Jun-16 16:30N 60°24' E 005°16'2 3.1
2017-Jun-16 15:59N 60°24' E 005°19'0 0.3
2017-Jun-16 15:30N 60°24' E 005°19'1 2.0
2017-Jun-16 15:00N 60°24' E 005°17'3 2.8
2017-Jun-16 14:00N 60°27' E 005°16'2 4.1
2017-Jun-16 13:30N 60°25' E 005°17'2 3.3
2017-Jun-16 12:59N 60°24' E 005°19'0 0.0
2017-Jun-16 12:28N 60°24' E 005°19'0 0.0
2017-Jun-16 11:58N 60°24' E 005°19'0 0.0
2017-Jun-16 11:29N 60°24' E 005°19'0 0.0
2017-Jun-16 10:59N 60°24' E 005°19'0 0.0
2017-Jun-15 23:55N 60°24' E 005°19'0 0.0
2017-Jun-15 23:28N 60°24' E 005°19'0 0.0
2017-Jun-15 22:58N 60°24' E 005°19'0 0.0
2017-Jun-15 22:28N 60°24' E 005°19'0 0.0
2017-Jun-15 21:58N 60°24' E 005°19'0 0.0
2017-Jun-15 21:28N 60°24' E 005°19'0 0.0
2017-Jun-15 20:58N 60°24' E 005°19'0 0.0
2017-Jun-15 20:28N 60°24' E 005°19'0 0.0
2017-Jun-15 19:58N 60°24' E 005°19'0 0.0
2017-Jun-15 19:25N 60°24' E 005°19'0 0.0
2017-Jun-15 18:58N 60°24' E 005°19'0 0.0
2017-Jun-15 18:25N 60°24' E 005°19'0 0.0
2017-Jun-15 17:58N 60°24' E 005°19'0 0.0
2017-Jun-15 17:28N 60°24' E 005°19'  
Track history (hours):
 
Tides and Currents Weather Stations Pressure Air Temp Water Temp Dewpoint Dewpoint Depression Visibility Wind Speed Wind Dir Waves Ship Positions

Veni Vi

Last reported at 2017-Jun-25 16:00 UTC. Time now 2017-Jun-25 17:27 UTC.
Position N 60°16' E 005°15'.

Length 13 m.

Type: Sailing vessel. MMSI: 257827490.

Date/timePositionNaut miles runAvg speedWind from/ knotsBaromVisibWave heightAir tempDewpointWater temp
2017-Jun-25 16:00N 60°16' E 005°15'  
2017-Jun-22 20:56N 60°16' E 005°15'0 0.0
2017-Jun-21 22:15N 60°16' E 005°15'0 0.0
2017-Jun-21 22:00N 60°16' E 005°15'0 0.0
2017-Jun-21 21:30N 60°16' E 005°15'0 0.0
2017-Jun-19 20:53N 60°16' E 005°15'0 0.0
2017-Jun-19 20:29N 60°16' E 005°15'0 0.6
2017-Jun-19 20:00N 60°16' E 005°15'2 4.4
2017-Jun-19 19:30N 60°18' E 005°12'2 3.2
2017-Jun-19 19:00N 60°16' E 005°12'  
2017-Jun-16 20:06N 60°16' E 005°15'0 0.0
2017-Jun-16 20:00N 60°16' E 005°15'0 0.0
2017-Jun-16 19:30N 60°16' E 005°15'0 0.5
2017-Jun-16 19:00N 60°16' E 005°15'2 3.2
2017-Jun-16 18:29N 60°17' E 005°12'2 3.5
2017-Jun-16 18:00N 60°18' E 005°12'2 3.7
2017-Jun-16 17:29N 60°20' E 005°11'3 5.1
2017-Jun-16 17:00N 60°23' E 005°10'3 6.9
2017-Jun-16 16:30N 60°24' E 005°16'2 3.1
2017-Jun-16 15:59N 60°24' E 005°19'0 0.3
2017-Jun-16 15:30N 60°24' E 005°19'1 2.0
2017-Jun-16 15:00N 60°24' E 005°17'3 2.8
2017-Jun-16 14:00N 60°27' E 005°16'2 4.1
2017-Jun-16 13:30N 60°25' E 005°17'2 3.3
2017-Jun-16 12:59N 60°24' E 005°19'0 0.0
2017-Jun-16 12:28N 60°24' E 005°19'0 0.0
2017-Jun-16 11:58N 60°24' E 005°19'0 0.0
2017-Jun-16 11:29N 60°24' E 005°19'0 0.0
2017-Jun-16 10:59N 60°24' E 005°19'0 0.0
2017-Jun-15 23:55N 60°24' E 005°19'0 0.0
2017-Jun-15 23:28N 60°24' E 005°19'0 0.0
2017-Jun-15 22:58N 60°24' E 005°19'0 0.0
2017-Jun-15 22:28N 60°24' E 005°19'0 0.0
2017-Jun-15 21:58N 60°24' E 005°19'0 0.0
2017-Jun-15 21:28N 60°24' E 005°19'0 0.0
2017-Jun-15 20:58N 60°24' E 005°19'0 0.0
2017-Jun-15 20:28N 60°24' E 005°19'0 0.0
2017-Jun-15 19:58N 60°24' E 005°19'0 0.0
2017-Jun-15 19:25N 60°24' E 005°19'0 0.0
2017-Jun-15 18:58N 60°24' E 005°19'0 0.0
2017-Jun-15 18:25N 60°24' E 005°19'0 0.0
2017-Jun-15 17:58N 60°24' E 005°19'0 0.0
2017-Jun-15 17:28N 60°24' E 005°19'  

Dump ship's entire track history